Time;durP1;ratioP1;P1;durP2;ratioP2;P2;SDS_P1;SDS_P2;PMS_P1;PMS_P2;Temp;Humidity;BMP_temperature;BMP_pressure;BME280_temperature;BME280_humidity;BME280_pressure;Samples;Min_cycle;Max_cycle;Signal;HPM_P1;HPM_P2
2022/05/17 00:02:02;;;;;;;5.13;1.90;;;16.70;99.90;;;;;;5056249;28;20021;-36
2022/05/17 00:04:28;;;;;;;4.07;1.60;;;16.70;99.90;;;;;;5048789;28;20104;-37
2022/05/17 00:06:53;;;;;;;8.02;2.13;;;16.70;99.90;;;;;;5041725;28;20112;-57
2022/05/17 00:09:19;;;;;;;7.78;2.13;;;16.70;99.90;;;;;;5047461;28;20075;-34
2022/05/17 00:11:46;;;;;;;7.03;1.88;;;16.70;99.90;;;;;;5054985;28;20029;-37
2022/05/17 00:14:13;;;;;;;6.90;1.98;;;16.70;99.90;;;;;;5051461;28;20547;-37
2022/05/17 00:16:39;;;;;;;3.97;2.15;;;16.70;99.90;;;;;;5034336;28;20029;-38
2022/05/17 00:19:05;;;;;;;5.70;2.38;;;16.70;99.90;;;;;;5052610;28;20025;-38
2022/05/17 00:21:31;;;;;;;11.90;2.15;;;16.70;99.90;;;;;;5047966;28;20036;-54
2022/05/17 00:23:56;;;;;;;4.22;1.65;;;16.70;99.90;;;;;;5052754;28;20108;-29
2022/05/17 00:26:22;;;;;;;5.05;1.92;;;16.70;99.90;;;;;;5035573;28;20061;-34
2022/05/17 00:28:48;;;;;;;13.02;1.88;;;16.70;99.90;;;;;;5055517;28;20049;-28
2022/05/17 00:31:14;;;;;;;5.63;1.88;;;16.70;99.90;;;;;;5053832;28;20123;-29
2022/05/17 00:33:39;;;;;;;12.90;2.53;;;16.70;99.90;;;;;;5038924;28;20068;-29
2022/05/17 00:36:05;;;;;;;5.13;1.40;;;16.70;99.90;;;;;;5037849;28;20025;-34
2022/05/17 00:38:31;;;;;;;6.03;1.75;;;16.70;99.90;;;;;;5036572;28;20030;-47
2022/05/17 00:40:57;;;;;;;3.30;1.58;;;16.70;99.90;;;;;;5042052;28;20033;-45
2022/05/17 00:46:42;;;;;;;10.60;1.70;;;16.70;99.90;;;;;;5037268;28;20487;-32
2022/05/17 00:49:11;;;;;;;7.63;2.03;;;16.70;99.90;;;;;;5053944;28;20508;-36
2022/05/17 00:51:39;;;;;;;4.68;1.98;;;16.70;99.90;;;;;;5052670;28;20021;-36
2022/05/17 00:54:13;;;;;;;10.07;2.17;;;16.70;99.90;;;;;;5036759;28;20033;-29
2022/05/17 00:56:46;;;;;;;4.40;1.60;;;16.70;99.90;;;;;;5047898;28;20022;-28
2022/05/17 00:59:12;;;;;;;4.25;1.83;;;16.70;99.90;;;;;;5048055;28;20079;-29
2022/05/17 01:01:38;;;;;;;1.92;1.33;;;16.60;99.90;;;;;;5048615;28;20016;-29
2022/05/17 01:04:08;;;;;;;9.35;2.38;;;16.60;99.90;;;;;;5037251;28;20052;-33
2022/05/17 01:06:39;;;;;;;5.88;1.83;;;16.60;99.90;;;;;;5040777;28;20029;-33
2022/05/17 01:09:05;;;;;;;8.18;1.88;;;16.60;99.90;;;;;;5054301;28;20539;-29
2022/05/17 01:11:31;;;;;;;4.95;1.38;;;16.60;99.90;;;;;;5034667;28;20048;-36
2022/05/17 01:16:42;;;;;;;4.20;1.60;;;16.50;99.90;;;;;;5044424;28;20032;-36
2022/05/17 01:19:09;;;;;;;5.80;1.70;;;16.50;99.90;;;;;;5045778;28;20498;-36
2022/05/17 01:21:36;;;;;;;6.80;2.47;;;16.50;99.90;;;;;;5034279;28;20018;-37
2022/05/17 01:24:02;;;;;;;4.57;1.87;;;16.40;99.90;;;;;;5050241;28;20092;-37
2022/05/17 01:26:31;;;;;;;4.40;1.60;;;16.40;99.90;;;;;;5044388;28;20504;-37
2022/05/17 01:28:56;;;;;;;5.50;1.98;;;16.50;99.90;;;;;;5042975;28;20041;-43
2022/05/17 01:31:23;;;;;;;9.70;2.42;;;16.50;99.90;;;;;;5042557;28;20071;-37
2022/05/17 01:33:49;;;;;;;6.85;1.85;;;16.50;99.90;;;;;;5052624;28;20021;-60
2022/05/17 01:36:16;;;;;;;7.93;2.35;;;16.50;99.90;;;;;;5045954;28;20116;-44
2022/05/17 01:38:50;;;;;;;4.25;1.67;;;16.50;99.90;;;;;;5051730;28;20102;-36
2022/05/17 01:41:17;;;;;;;5.22;1.73;;;16.40;99.90;;;;;;5053377;28;20063;-36
2022/05/17 01:43:42;;;;;;;9.65;2.45;;;16.40;99.90;;;;;;5033943;28;20075;-37
2022/05/17 01:46:09;;;;;;;1.67;1.58;;;16.40;99.90;;;;;;5045674;28;20033;-34
2022/05/17 01:48:39;;;;;;;6.33;2.47;;;16.40;99.90;;;;;;5052506;28;20029;-44
2022/05/17 01:51:06;;;;;;;10.63;2.42;;;16.40;99.90;;;;;;5046189;28;20366;-36
2022/05/17 01:53:33;;;;;;;3.83;1.58;;;16.40;99.90;;;;;;5036073;28;20021;-36
2022/05/17 01:56:01;;;;;;;6.27;1.67;;;16.30;99.90;;;;;;5040605;28;20033;-37
2022/05/17 01:58:27;;;;;;;10.07;2.40;;;16.30;99.90;;;;;;5035570;28;20352;-36
2022/05/17 02:00:52;;;;;;;9.15;2.45;;;16.30;99.90;;;;;;5033853;28;20386;-37
2022/05/17 02:03:18;;;;;;;6.78;2.58;;;16.20;99.90;;;;;;5034172;28;20136;-35
2022/05/17 02:05:43;;;;;;;4.55;1.77;;;16.20;99.90;;;;;;5046421;28;20024;-36
2022/05/17 02:08:09;;;;;;;8.95;2.33;;;16.10;99.90;;;;;;5053272;28;20029;-37
2022/05/17 02:10:35;;;;;;;5.53;2.10;;;16.10;99.90;;;;;;5050240;28;20388;-36
2022/05/17 02:13:00;;;;;;;4.47;2.60;;;16.10;99.90;;;;;;5051356;28;20025;-37
2022/05/17 02:15:27;;;;;;;2.75;1.95;;;16.10;99.90;;;;;;5039213;28;20025;-49
2022/05/17 02:17:53;;;;;;;3.78;1.95;;;16.00;99.90;;;;;;5056337;28;20020;-36
2022/05/17 02:20:19;;;;;;;6.85;1.90;;;16.00;99.90;;;;;;5036000;28;20060;-37
2022/05/17 02:22:45;;;;;;;3.08;2.08;;;15.90;99.90;;;;;;5044644;28;20025;-37
2022/05/17 02:25:11;;;;;;;5.05;2.40;;;15.90;99.90;;;;;;5048398;28;20495;-36
2022/05/17 02:27:38;;;;;;;5.90;2.78;;;15.90;99.90;;;;;;5042382;28;20531;-36
2022/05/17 02:30:09;;;;;;;4.50;2.38;;;15.80;99.90;;;;;;5035085;28;20064;-36
2022/05/17 02:32:35;;;;;;;4.65;2.22;;;15.80;99.90;;;;;;5051277;28;20025;-37
2022/05/17 02:35:01;;;;;;;5.35;2.53;;;15.70;99.90;;;;;;5033678;28;20024;-30
2022/05/17 02:37:26;;;;;;;7.20;2.55;;;15.70;99.90;;;;;;5039437;28;20074;-36
2022/05/17 02:39:53;;;;;;;4.38;2.42;;;15.60;99.90;;;;;;5052169;28;20067;-36
2022/05/17 02:42:19;;;;;;;8.50;2.70;;;15.60;99.90;;;;;;5042454;28;20035;-37
2022/05/17 02:44:44;;;;;;;3.88;2.08;;;15.60;99.90;;;;;;5044567;28;20026;-36
2022/05/17 02:47:10;;;;;;;3.90;2.22;;;15.60;99.90;;;;;;5050606;28;20031;-36
2022/05/17 02:49:40;;;;;;;5.38;2.65;;;15.60;99.90;;;;;;5052416;28;20488;-36
2022/05/17 02:52:06;;;;;;;5.35;2.60;;;15.60;99.90;;;;;;5053375;28;20032;-37
2022/05/17 02:54:32;;;;;;;7.07;2.60;;;15.50;99.90;;;;;;5035016;28;20513;-36
2022/05/17 02:56:58;;;;;;;7.82;3.17;;;15.50;99.90;;;;;;5032641;28;20053;-38
2022/05/17 02:59:24;;;;;;;6.03;2.85;;;15.50;99.90;;;;;;5032826;28;20064;-65
2022/05/17 03:01:50;;;;;;;6.85;2.53;;;15.50;99.90;;;;;;5040916;28;20017;-36
2022/05/17 03:04:16;;;;;;;4.90;2.38;;;15.50;99.90;;;;;;5051778;28;20025;-36
2022/05/17 03:06:43;;;;;;;5.38;2.45;;;15.50;99.90;;;;;;5036086;28;20029;-36
2022/05/17 03:09:09;;;;;;;13.25;2.70;;;15.50;99.90;;;;;;5033034;28;20535;-36
2022/05/17 03:11:36;;;;;;;6.60;2.40;;;15.40;99.90;;;;;;5049269;28;20498;-37
2022/05/17 03:14:02;;;;;;;7.20;2.45;;;15.50;99.90;;;;;;5042541;28;20500;-36
2022/05/17 03:16:32;;;;;;;2.95;2.53;;;15.50;99.90;;;;;;5032443;28;20108;-35
2022/05/17 03:18:58;;;;;;;6.15;3.10;;;15.40;99.90;;;;;;5032786;28;20113;-37
2022/05/17 03:21:24;;;;;;;6.05;2.90;;;15.50;99.90;;;;;;5033600;28;20093;-45
2022/05/17 03:23:50;;;;;;;6.05;2.78;;;15.50;99.90;;;;;;5048402;28;20069;-36
2022/05/17 03:26:15;;;;;;;10.13;2.75;;;15.60;99.90;;;;;;5041802;28;20371;-37
2022/05/17 03:28:41;;;;;;;6.35;2.35;;;15.60;99.90;;;;;;5038707;28;20045;-51
2022/05/17 03:31:08;;;;;;;10.63;3.13;;;15.60;99.90;;;;;;5035883;28;20039;-36
2022/05/17 03:33:37;;;;;;;3.27;2.43;;;15.60;99.90;;;;;;5048101;28;20021;-35
2022/05/17 03:36:09;;;;;;;6.82;2.90;;;15.60;99.90;;;;;;5036972;28;20022;-34
2022/05/17 03:38:36;;;;;;;6.82;2.70;;;15.70;99.90;;;;;;5036509;28;20038;-36
2022/05/17 03:41:02;;;;;;;4.55;2.60;;;15.70;99.90;;;;;;5038841;28;20036;-36
2022/05/17 03:43:28;;;;;;;2.50;2.00;;;15.80;99.90;;;;;;5035735;28;20068;-36
2022/05/17 03:45:55;;;;;;;10.40;2.33;;;15.80;99.90;;;;;;5033875;28;20086;-55
2022/05/17 03:48:22;;;;;;;5.47;2.63;;;15.90;99.90;;;;;;5049512;28;20198;-39
2022/05/17 03:50:48;;;;;;;6.35;2.50;;;15.90;99.90;;;;;;5052781;28;20028;-36
2022/05/17 03:53:14;;;;;;;4.10;2.40;;;15.90;99.90;;;;;;5039119;28;20343;-36
2022/05/17 03:55:39;;;;;;;12.88;2.47;;;16.00;99.90;;;;;;5031558;28;20502;-37
2022/05/17 03:58:05;;;;;;;8.13;2.78;;;16.00;99.90;;;;;;5043902;28;20102;-36
2022/05/17 04:00:31;;;;;;;5.00;2.83;;;16.10;99.90;;;;;;5038772;28;20025;-37
2022/05/17 04:02:57;;;;;;;3.75;2.30;;;16.10;99.90;;;;;;5035425;28;20028;-37
2022/05/17 04:05:22;;;;;;;5.28;2.10;;;16.20;99.90;;;;;;5047889;28;20029;-37
2022/05/17 04:07:48;;;;;;;3.00;1.95;;;16.20;99.90;;;;;;5052178;28;20111;-36
2022/05/17 04:10:15;;;;;;;9.27;2.60;;;16.20;99.90;;;;;;5036308;28;20093;-36
2022/05/17 04:12:41;;;;;;;13.07;3.00;;;16.30;99.90;;;;;;5035512;28;20071;-36
2022/05/17 04:15:10;;;;;;;5.30;2.40;;;16.30;99.90;;;;;;5051666;28;20864;-36
2022/05/17 04:17:36;;;;;;;8.13;2.30;;;16.40;99.90;;;;;;5054370;28;20025;-30
2022/05/17 04:20:03;;;;;;;5.13;3.10;;;16.40;99.90;;;;;;5037553;28;20401;-37
2022/05/17 04:22:28;;;;;;;4.75;2.10;;;16.40;99.90;;;;;;5055717;28;20036;-37
2022/05/17 04:24:55;;;;;;;3.60;2.80;;;16.40;99.90;;;;;;5043549;28;20104;-38
2022/05/17 04:27:22;;;;;;;3.88;2.90;;;16.50;99.90;;;;;;5049277;28;20021;-37
2022/05/17 04:29:49;;;;;;;5.25;2.53;;;16.50;99.90;;;;;;5045241;28;20140;-30
2022/05/17 04:32:14;;;;;;;7.60;2.38;;;16.50;99.90;;;;;;5043510;28;20100;-28
2022/05/17 04:34:40;;;;;;;8.75;2.85;;;16.60;99.90;;;;;;5038712;28;20537;-29
2022/05/17 04:37:06;;;;;;;8.48;2.65;;;16.60;99.90;;;;;;5053652;28;20051;-29
2022/05/17 04:39:32;;;;;;;3.97;2.40;;;16.60;99.90;;;;;;5052826;28;20021;-36
2022/05/17 04:41:58;;;;;;;6.85;3.15;;;16.70;99.90;;;;;;5040646;28;20501;-32
2022/05/17 04:44:24;;;;;;;5.28;2.80;;;16.60;99.90;;;;;;5051360;28;20101;-33
2022/05/17 04:46:50;;;;;;;5.10;2.28;;;16.60;99.90;;;;;;5036770;28;20044;-32
2022/05/17 04:49:15;;;;;;;7.38;2.97;;;16.60;99.90;;;;;;5046194;28;20072;-29
2022/05/17 04:51:41;;;;;;;10.60;2.42;;;16.60;99.90;;;;;;5037225;28;20018;-47
2022/05/17 04:54:07;;;;;;;5.47;2.83;;;16.60;99.90;;;;;;5034143;28;20013;-36
2022/05/17 04:56:34;;;;;;;9.30;3.28;;;16.70;99.90;;;;;;5041668;28;20036;-37
2022/05/17 04:59:00;;;;;;;7.40;2.63;;;16.70;99.90;;;;;;5048279;28;20026;-29
2022/05/17 05:01:26;;;;;;;6.63;2.75;;;16.70;99.90;;;;;;5053003;28;20040;-32
2022/05/17 05:03:52;;;;;;;5.18;2.88;;;16.80;99.90;;;;;;5036789;28;20497;-30
2022/05/17 05:06:17;;;;;;;8.35;2.75;;;16.90;99.90;;;;;;5034812;28;20033;-38
2022/05/17 05:08:43;;;;;;;3.05;2.13;;;16.90;99.90;;;;;;5050120;28;20078;-29
2022/05/17 05:11:08;;;;;;;5.65;2.35;;;16.90;99.90;;;;;;5047755;28;20025;-30
2022/05/17 05:13:34;;;;;;;7.57;2.83;;;16.90;99.90;;;;;;5040349;28;20465;-32
2022/05/17 05:15:59;;;;;;;4.30;2.80;;;16.90;99.90;;;;;;5042931;28;20440;-42
2022/05/17 05:18:25;;;;;;;7.65;3.00;;;16.90;99.90;;;;;;5045773;28;21507;-31
2022/05/17 05:21:01;;;;;;;15.30;3.70;;;16.90;99.90;;;;;;5042479;28;20036;-29
2022/05/17 05:23:27;;;;;;;11.45;2.53;;;16.90;99.90;;;;;;5037165;28;20034;-34
2022/05/17 05:26:00;;;;;;;4.70;2.35;;;17.00;99.90;;;;;;5037744;28;20100;-34
2022/05/17 05:28:26;;;;;;;4.57;2.13;;;17.00;99.90;;;;;;5050256;28;20064;-29
2022/05/17 05:30:54;;;;;;;5.00;2.42;;;17.10;99.90;;;;;;5053162;28;20060;-32
2022/05/17 05:33:20;;;;;;;4.57;2.40;;;17.10;99.90;;;;;;5043815;28;20046;-30
2022/05/17 05:35:45;;;;;;;4.28;1.80;;;17.20;99.90;;;;;;5053178;28;20100;-28
2022/05/17 05:38:11;;;;;;;9.63;3.10;;;17.20;99.90;;;;;;5045682;28;20033;-29
2022/05/17 05:40:36;;;;;;;6.07;2.35;;;17.20;99.90;;;;;;5034192;28;20389;-30
2022/05/17 05:43:02;;;;;;;16.05;3.30;;;17.30;99.90;;;;;;5034236;28;20025;-28
2022/05/17 05:45:28;;;;;;;4.38;2.17;;;17.40;99.90;;;;;;5033615;28;20029;-32
2022/05/17 05:47:53;;;;;;;6.10;2.35;;;17.50;99.90;;;;;;5042977;28;20025;-30
2022/05/17 05:50:20;;;;;;;12.32;2.97;;;17.60;99.90;;;;;;5034759;28;20097;-30
2022/05/17 05:52:47;;;;;;;7.63;3.05;;;17.70;99.90;;;;;;5033095;28;20104;-38
2022/05/17 05:55:19;;;;;;;9.18;3.17;;;17.60;99.90;;;;;;5053531;28;20032;-32
2022/05/17 05:57:45;;;;;;;5.45;2.50;;;17.60;99.90;;;;;;5034139;28;20171;-32
2022/05/17 06:00:11;;;;;;;11.73;3.35;;;17.60;99.90;;;;;;5033987;28;20537;-29
2022/05/17 06:02:37;;;;;;;8.57;3.22;;;17.60;99.90;;;;;;5034174;28;20040;-35
2022/05/17 06:05:04;;;;;;;10.73;2.95;;;17.60;99.90;;;;;;5040174;28;20041;-32
2022/05/17 06:07:29;;;;;;;10.18;2.75;;;17.60;99.90;;;;;;5045727;28;20055;-29
2022/05/17 06:09:55;;;;;;;6.78;2.90;;;17.50;99.90;;;;;;5034558;28;20108;-50
2022/05/17 06:12:20;;;;;;;4.32;2.78;;;17.40;99.90;;;;;;5042169;28;20454;-36
2022/05/17 06:14:46;;;;;;;7.55;2.58;;;17.40;99.90;;;;;;5042011;28;20022;-36
2022/05/17 06:17:12;;;;;;;2.78;2.40;;;17.50;99.90;;;;;;5046517;28;20500;-36
2022/05/17 06:19:37;;;;;;;6.63;2.53;;;17.40;99.90;;;;;;5049986;28;20451;-36
2022/05/17 06:22:03;;;;;;;7.00;2.42;;;17.50;99.90;;;;;;5033268;28;20022;-38
2022/05/17 06:24:29;;;;;;;6.55;2.30;;;17.50;99.90;;;;;;5038850;28;20527;-39
2022/05/17 06:26:54;;;;;;;6.20;2.55;;;17.50;99.90;;;;;;5033269;28;20064;-38
2022/05/17 06:29:20;;;;;;;6.63;2.50;;;17.40;99.90;;;;;;5040853;28;20044;-40
2022/05/17 06:31:45;;;;;;;10.20;2.95;;;17.30;99.90;;;;;;5053307;28;20097;-38
2022/05/17 06:34:11;;;;;;;16.15;2.95;;;17.20;99.90;;;;;;5042409;28;20539;-39
2022/05/17 06:36:37;;;;;;;4.63;2.13;;;17.20;99.90;;;;;;5052109;28;20640;-56
2022/05/17 06:39:08;;;;;;;5.57;2.22;;;17.30;99.90;;;;;;5052602;28;20478;-38
2022/05/17 06:41:34;;;;;;;4.97;2.03;;;17.40;99.90;;;;;;5050994;28;20029;-38
2022/05/17 06:44:00;;;;;;;4.78;2.38;;;17.50;99.90;;;;;;5049676;28;20029;-38
2022/05/17 06:46:25;;;;;;;8.23;2.83;;;17.70;99.90;;;;;;5033248;28;20088;-38
2022/05/17 06:48:51;;;;;;;7.03;1.70;;;17.80;99.90;;;;;;5033189;28;20076;-39
2022/05/17 06:51:16;;;;;;;5.35;2.15;;;17.90;99.90;;;;;;5040260;28;20482;-38
2022/05/17 06:53:42;;;;;;;6.70;2.42;;;17.90;99.90;;;;;;5042600;28;20097;-35
2022/05/17 06:56:08;;;;;;;4.53;2.20;;;18.00;99.90;;;;;;5035838;28;20041;-37
2022/05/17 06:58:34;;;;;;;11.15;2.13;;;18.10;99.90;;;;;;5043767;28;20021;-36
2022/05/17 07:00:59;;;;;;;5.57;2.00;;;18.00;99.90;;;;;;5032792;28;20128;-37
2022/05/17 07:03:25;;;;;;;5.20;2.00;;;17.90;99.90;;;;;;5034768;28;20030;-36
2022/05/17 07:05:51;;;;;;;7.05;1.92;;;17.90;99.90;;;;;;5033913;28;20040;-38
2022/05/17 07:08:17;;;;;;;4.80;2.08;;;17.70;99.90;;;;;;5036066;28;20107;-71
2022/05/17 07:13:27;;;;;;;11.10;2.60;;;17.50;99.90;;;;;;5032346;28;20504;-38
2022/05/17 07:15:53;;;;;;;10.32;2.45;;;17.50;99.90;;;;;;5032339;28;20056;-38
2022/05/17 07:18:22;;;;;;;5.55;2.08;;;17.50;99.90;;;;;;5051314;28;20119;-38
2022/05/17 07:20:48;;;;;;;4.00;1.80;;;17.40;99.90;;;;;;5044401;28;20497;-38
2022/05/17 07:23:15;;;;;;;11.98;2.53;;;17.40;99.90;;;;;;5035333;28;20496;-41
2022/05/17 07:25:43;;;;;;;8.35;2.28;;;17.40;99.90;;;;;;5033062;28;20392;-39
2022/05/17 07:28:10;;;;;;;7.40;2.47;;;17.30;99.90;;;;;;5035112;28;20037;-35
2022/05/17 07:30:35;;;;;;;5.40;2.95;;;17.30;99.90;;;;;;5038493;28;20045;-36
2022/05/17 07:33:01;;;;;;;5.03;2.30;;;17.30;99.90;;;;;;5033299;28;20072;-37
2022/05/17 07:35:30;;;;;;;8.77;2.40;;;17.40;99.90;;;;;;5045059;28;20087;-32
2022/05/17 07:37:55;;;;;;;9.40;2.42;;;17.50;99.90;;;;;;5036699;28;20029;-29
2022/05/17 07:40:22;;;;;;;6.90;3.00;;;17.60;99.90;;;;;;5041572;28;20083;-29
2022/05/17 07:42:48;;;;;;;7.45;2.08;;;17.60;99.90;;;;;;5035501;28;20112;-31
2022/05/17 07:45:15;;;;;;;6.80;2.55;;;17.60;99.90;;;;;;5043721;28;20037;-37
2022/05/17 07:47:41;;;;;;;6.25;2.35;;;17.60;99.90;;;;;;5042940;28;20017;-33
2022/05/17 07:50:07;;;;;;;8.57;2.22;;;17.60;99.90;;;;;;5050179;28;20082;-29
2022/05/17 07:52:33;;;;;;;7.05;1.75;;;17.70;99.90;;;;;;5038374;28;20382;-37
2022/05/17 07:55:00;;;;;;;7.90;2.03;;;17.80;99.90;;;;;;5052555;28;20091;-38
2022/05/17 07:57:26;;;;;;;6.57;2.05;;;17.80;99.90;;;;;;5054967;28;20070;-37
2022/05/17 07:59:52;;;;;;;14.50;2.25;;;17.90;99.90;;;;;;5043198;28;20021;-35
2022/05/17 08:02:18;;;;;;;5.45;1.63;;;17.90;99.90;;;;;;5045065;28;20096;-34
2022/05/17 08:04:43;;;;;;;4.25;1.77;;;18.00;99.90;;;;;;5042904;28;20049;-30
2022/05/17 08:07:09;;;;;;;1.50;1.13;;;18.10;99.90;;;;;;5038579;28;20041;-39
2022/05/17 08:09:36;;;;;;;8.55;2.10;;;18.30;99.90;;;;;;5035959;28;20013;-29
2022/05/17 08:12:04;;;;;;;7.25;2.08;;;18.50;99.90;;;;;;5035482;28;20021;-31
2022/05/17 08:14:30;;;;;;;2.40;1.85;;;18.70;99.90;;;;;;5047110;28;20025;-31
2022/05/17 08:16:55;;;;;;;8.88;1.83;;;18.90;99.90;;;;;;5035582;28;20459;-32
2022/05/17 08:19:21;;;;;;;6.55;1.67;;;19.00;99.90;;;;;;5043285;28;20477;-32
2022/05/17 08:21:46;;;;;;;6.20;2.15;;;19.10;99.90;;;;;;5055778;28;20025;-33
2022/05/17 08:24:12;;;;;;;2.78;1.73;;;19.30;99.90;;;;;;5055681;28;20100;-39
2022/05/17 08:29:22;;;;;;;4.80;2.13;;;19.70;99.90;;;;;;5051026;28;20055;-35
2022/05/17 08:34:32;;;;;;;3.67;2.00;;;19.90;99.90;;;;;;5035520;28;20084;-38
2022/05/17 08:36:58;;;;;;;6.00;1.50;;;19.80;99.90;;;;;;5050599;28;20466;-38
2022/05/17 08:39:26;;;;;;;3.85;1.75;;;19.50;99.90;;;;;;5043569;28;20034;-35
2022/05/17 08:42:19;;;;;;;6.45;1.60;;;19.40;99.90;;;;;;5034167;28;20025;-29
2022/05/17 08:44:50;;;;;;;1.80;1.10;;;19.30;99.90;;;;;;5032344;28;20508;-47
2022/05/17 08:47:29;;;;;;;5.30;1.58;;;19.30;99.90;;;;;;5034047;28;20029;-36
2022/05/17 08:50:06;;;;;;;6.25;2.10;;;19.40;99.90;;;;;;5040281;28;20469;-39
2022/05/17 08:52:33;;;;;;;;;;;19.50;99.90;;;;;;5053922;28;20017;-37
2022/05/17 08:55:10;;;;;;;6.90;2.07;;;19.50;99.90;;;;;;5047922;28;19913;-38
2022/05/17 08:57:44;;;;;;;9.02;2.17;;;19.60;99.90;;;;;;5043117;28;20360;-42
2022/05/17 09:00:17;;;;;;;4.80;1.98;;;19.70;99.90;;;;;;5045524;28;20041;-39
2022/05/17 09:02:51;;;;;;;6.20;1.60;;;19.80;99.90;;;;;;5050199;28;20492;-42
2022/05/17 09:05:29;;;;;;;7.63;2.10;;;20.20;99.90;;;;;;5035194;28;20033;-37
2022/05/17 09:08:00;;;;;;;;;;;20.80;99.90;;;;;;5035480;28;20025;-34
2022/05/17 09:10:39;;;;;;;9.55;2.22;;;21.70;99.90;;;;;;5034326;28;19912;-34
2022/05/17 09:13:12;;;;;;;5.25;2.33;;;22.20;99.90;;;;;;5036452;28;20029;-32
2022/05/17 09:15:38;;;;;;;3.67;1.55;;;22.40;99.90;;;;;;5048669;28;20075;-33
2022/05/17 09:18:10;;;;;;;3.65;1.50;;;22.40;99.90;;;;;;5034543;28;20049;-34
2022/05/17 09:20:37;;;;;;;5.18;2.25;;;22.30;99.90;;;;;;5037878;28;20029;-33
2022/05/17 09:23:03;;;;;;;3.08;2.03;;;22.50;99.90;;;;;;5043481;28;20048;-31
2022/05/17 09:26:03;;;;;;;11.10;2.33;;;22.40;99.90;;;;;;5033580;28;20036;-29
2022/05/17 09:28:49;;;;;;;17.50;6.47;;;22.10;99.90;;;;;;5048054;28;20041;-33
2022/05/17 09:31:28;;;;;;;2.67;1.65;;;22.10;99.90;;;;;;5047364;28;20025;-30
2022/05/17 09:33:53;;;;;;;3.47;2.35;;;22.20;99.90;;;;;;5033055;28;20533;-36
2022/05/17 09:36:22;;;;;;;1.55;1.38;;;22.40;99.90;;;;;;5046959;28;20104;-29
2022/05/17 09:38:50;;;;;;;5.45;1.77;;;22.70;99.90;;;;;;5044325;28;20028;-31
2022/05/17 09:41:21;;;;;;;3.78;1.77;;;22.70;99.90;;;;;;5047609;28;20040;-32
2022/05/17 09:43:55;;;;;;;5.93;1.92;;;22.70;99.90;;;;;;5038009;28;20032;-33
2022/05/17 09:46:35;;;;;;;4.70;1.77;;;22.70;99.90;;;;;;5032995;28;20083;-31
2022/05/17 09:52:34;;;;;;;5.22;1.55;;;22.60;99.90;;;;;;5032823;28;20516;-35
2022/05/17 09:55:12;;;;;;;3.70;1.73;;;22.60;99.90;;;;;;5040850;28;20065;-30
2022/05/17 09:57:50;;;;;;;2.88;1.38;;;22.70;99.90;;;;;;5033371;28;20440;-31
2022/05/17 10:00:22;;;;;;;5.15;1.75;;;22.80;99.90;;;;;;5035805;28;20489;-31
2022/05/17 10:03:00;;;;;;;4.43;1.60;;;23.00;99.90;;;;;;5035066;28;20474;-32
2022/05/17 10:06:02;;;;;;;6.97;1.60;;;23.30;99.90;;;;;;5044759;28;20112;-37
2022/05/17 10:08:56;;;;;;;6.35;1.60;;;23.20;99.90;;;;;;5052433;28;20548;-38
2022/05/17 10:11:24;;;;;;;4.22;1.60;;;23.30;99.90;;;;;;5052784;28;20029;-37
2022/05/17 10:13:53;;;;;;;4.70;1.80;;;23.40;99.90;;;;;;5044045;28;20052;-41
2022/05/17 10:16:33;;;;;;;4.65;1.35;;;23.70;99.90;;;;;;5035879;28;20104;-38
2022/05/17 10:19:08;;;;;;;4.85;1.85;;;23.80;99.90;;;;;;5050680;28;20029;-38
2022/05/17 10:21:54;;;;;;;3.78;2.25;;;24.00;99.90;;;;;;5043265;28;20472;-37
2022/05/17 10:24:43;;;;;;;3.80;1.93;;;23.90;99.90;;;;;;5039149;28;20519;-38
2022/05/17 10:27:30;;;;;;;7.22;2.05;;;23.90;99.90;;;;;;5043038;28;20037;-38
2022/05/17 10:30:03;;;;;;;3.22;1.90;;;23.70;99.90;;;;;;5033246;28;20513;-37
2022/05/17 10:32:49;;;;;;;4.43;1.73;;;23.70;99.90;;;;;;5034571;28;20494;-34
2022/05/17 10:35:34;;;;;;;5.35;2.50;;;23.50;99.90;;;;;;5039292;28;20116;-36
2022/05/17 10:38:12;;;;;;;4.55;2.35;;;23.10;99.90;;;;;;5052478;28;20501;-37
2022/05/17 10:40:45;;;;;;;2.35;1.90;;;22.90;99.90;;;;;;5053225;28;20028;-29
2022/05/17 10:43:23;;;;;;;4.45;1.60;;;22.70;99.90;;;;;;5049713;28;20483;-29
2022/05/17 10:45:56;;;;;;;4.90;1.77;;;22.60;99.90;;;;;;5033184;28;20029;-34
2022/05/17 10:48:33;;;;;;;5.32;1.92;;;22.60;99.90;;;;;;5052702;28;20017;-31
2022/05/17 10:51:14;;;;;;;7.30;1.95;;;22.80;99.90;;;;;;5033269;28;20036;-30
2022/05/17 10:54:00;;;;;;;11.65;2.95;;;23.00;99.90;;;;;;5035840;28;20060;-38
2022/05/17 10:56:46;;;;;;;12.85;2.50;;;23.40;99.90;;;;;;5041428;28;20029;-37
2022/05/17 10:59:54;;;;;;;5.32;2.70;;;23.50;99.90;;;;;;5033008;28;20029;-38
2022/05/17 11:03:06;;;;;;;2.85;1.65;;;23.80;99.90;;;;;;5035030;28;20060;-36
2022/05/17 11:05:57;;;;;;;7.63;2.53;;;23.80;99.90;;;;;;5040811;28;20021;-36
2022/05/17 11:08:26;;;;;;;9.85;3.53;;;23.80;99.90;;;;;;5036241;28;20029;-38
2022/05/17 11:11:16;;;;;;;4.15;2.13;;;23.60;99.90;;;;;;5052112;28;20493;-37
2022/05/17 11:13:58;;;;;;;5.38;2.03;;;23.40;99.90;;;;;;5037635;28;20071;-56
2022/05/17 11:16:33;;;;;;;8.60;3.13;;;23.40;99.90;;;;;;5038864;28;20033;-38
2022/05/17 11:19:01;;;;;;;5.60;2.38;;;23.40;99.90;;;;;;5054922;28;20504;-38
2022/05/17 11:21:30;;;;;;;5.70;2.88;;;23.30;99.90;;;;;;5044185;28;20492;-37
2022/05/17 11:24:21;;;;;;;6.63;3.28;;;23.30;99.90;;;;;;5038645;28;20469;-37
2022/05/17 11:27:03;;;;;;;5.85;2.40;;;23.40;99.90;;;;;;5036506;28;20037;-37
2022/05/17 11:29:40;;;;;;;7.22;2.42;;;23.90;99.90;;;;;;5036679;28;20052;-38
2022/05/17 11:32:23;;;;;;;4.07;2.22;;;24.20;99.90;;;;;;5038889;28;20063;-40
2022/05/17 11:34:50;;;;;;;3.85;1.98;;;24.40;99.90;;;;;;5041069;28;20501;-38
2022/05/17 11:37:34;;;;;;;6.07;2.88;;;24.60;99.90;;;;;;5044361;28;20043;-40
2022/05/17 11:40:04;;;;;;;4.82;2.60;;;24.90;99.90;;;;;;5056545;28;20032;-39
2022/05/17 11:42:31;;;;;;;7.82;3.28;;;25.20;99.90;;;;;;5050539;28;20473;-39
2022/05/17 11:45:20;;;;;;;16.42;2.85;;;25.40;99.90;;;;;;5050753;28;20571;-38
2022/05/17 11:47:57;;;;;;;7.38;3.22;;;25.70;99.60;;;;;;5056711;28;20538;-38
2022/05/17 11:50:29;;;;;;;6.75;2.80;;;25.90;99.00;;;;;;5056383;28;20017;-38
2022/05/17 11:53:15;;;;;;;6.80;3.13;;;25.90;99.00;;;;;;5044232;28;20041;-39
2022/05/17 11:56:01;;;;;;;7.13;2.40;;;26.00;98.80;;;;;;5054484;28;20036;-37
2022/05/17 11:58:30;;;;;;;4.85;2.40;;;26.10;99.10;;;;;;5053610;28;20079;-40
2022/05/17 12:00:55;;;;;;;6.57;3.40;;;26.20;98.50;;;;;;5034429;28;20030;-38
2022/05/17 12:03:46;;;;;;;5.03;3.30;;;26.20;97.80;;;;;;5037070;28;20032;-38
2022/05/17 12:06:33;;;;;;;8.27;4.03;;;25.90;98.00;;;;;;5038133;28;20453;-36
2022/05/17 12:08:59;;;;;;;10.23;3.03;;;25.60;98.00;;;;;;5046284;28;20025;-39
2022/05/17 12:11:46;;;;;;;6.90;3.10;;;25.40;98.60;;;;;;5041645;28;20021;-38
2022/05/17 12:14:23;;;;;;;;;;;25.30;99.20;;;;;;5049806;28;20047;-37
2022/05/17 12:16:54;;;;;;;7.25;3.45;;;25.30;98.50;;;;;;5052807;28;19908;-38
2022/05/17 12:19:39;;;;;;;8.73;3.70;;;25.30;98.80;;;;;;5041881;28;20032;-37
2022/05/17 12:22:18;;;;;;;7.22;3.38;;;25.30;98.70;;;;;;5036970;28;20024;-38
2022/05/17 12:25:08;;;;;;;9.75;4.13;;;25.40;99.30;;;;;;5034512;28;20112;-38
2022/05/17 12:27:40;;;;;;;6.40;3.47;;;25.60;99.30;;;;;;5035831;28;20375;-39
2022/05/17 12:33:09;;;;;;;10.20;3.83;;;25.50;98.90;;;;;;5042080;28;20505;-38
2022/05/17 12:35:36;;;;;;;7.68;3.75;;;25.80;99.00;;;;;;5058057;28;20029;-38
2022/05/17 12:43:02;;;;;;;8.00;3.40;;;25.70;99.10;;;;;;5067875;28;20128;-39
2022/05/17 12:43:33;;;;;;;6.60;3.63;;;26.30;98.30;;;;;;5039129;28;20546;-38
2022/05/17 12:46:28;;;;;;;13.82;4.20;;;26.70;98.20;;;;;;5037708;28;20500;-35
2022/05/17 12:48:53;;;;;;;8.43;4.03;;;27.00;98.00;;;;;;5038447;28;20409;-38
2022/05/17 12:51:20;;;;;;;6.13;2.78;;;27.00;97.60;;;;;;5035725;28;20116;-38
2022/05/17 12:53:50;;;;;;;8.07;3.05;;;27.10;97.80;;;;;;5042236;28;20022;-39
2022/05/17 12:56:16;;;;;;;9.55;3.08;;;27.20;97.40;;;;;;5042960;28;20029;-39
2022/05/17 12:58:59;;;;;;;5.70;3.03;;;27.20;96.30;;;;;;5035085;28;20503;-43
2022/05/17 13:01:38;;;;;;;10.77;2.88;;;26.90;96.70;;;;;;5036375;28;20067;-38
2022/05/17 13:04:10;;;;;;;6.60;2.85;;;26.90;97.40;;;;;;5052308;28;20025;-39
2022/05/17 13:06:50;;;;;;;6.18;3.17;;;27.10;96.90;;;;;;5049907;28;20029;-40
2022/05/17 13:09:24;;;;;;;4.75;2.90;;;27.30;96.60;;;;;;5036252;28;20040;-39
2022/05/17 13:11:53;;;;;;;5.22;2.88;;;27.50;95.90;;;;;;5034638;28;20067;-38
2022/05/17 13:14:22;;;;;;;7.00;3.08;;;27.60;96.60;;;;;;5035198;28;20026;-36
2022/05/17 13:16:50;;;;;;;6.38;2.90;;;27.80;96.60;;;;;;5043629;28;20071;-37
2022/05/17 13:19:19;;;;;;;6.47;2.72;;;28.10;95.80;;;;;;5042510;28;20029;-38
2022/05/17 13:21:51;;;;;;;7.43;2.28;;;28.20;95.50;;;;;;5054332;28;20056;-38
2022/05/17 13:24:26;;;;;;;13.38;2.80;;;28.00;95.20;;;;;;5054574;28;20021;-39